Time;durP1;ratioP1;P1;durP2;ratioP2;P2;SDS_P1;SDS_P2;PMS_P1;PMS_P2;Temp;Humidity;BMP_temperature;BMP_pressure;BME280_temperature;BME280_humidity;BME280_pressure;Samples;Min_cycle;Max_cycle;Signal;HPM_P1;HPM_P2
2022/04/11 00:04:30;;;;;;;34.30;7.88;;;;;;;8.33;83.21;99758.84;10375777;28;20038;-81
2022/04/11 00:09:30;;;;;;;49.40;12.40;;;;;;;7.75;83.92;99684.03;10377017;28;20127;-81
2022/04/11 00:14:31;;;;;;;63.67;18.95;;;;;;;7.89;85.29;99730.94;10376701;28;20046;-81
2022/04/11 00:19:32;;;;;;;67.20;16.33;;;;;;;7.68;86.23;99693.59;10376952;28;20533;-82
2022/04/11 00:24:33;;;;;;;44.55;14.85;;;;;;;7.21;86.34;99628.16;10375661;28;20132;-81
2022/04/11 00:29:34;;;;;;;34.40;8.18;;;;;;;8.05;87.00;99747.78;10375474;28;20116;-82
2022/04/11 00:34:34;;;;;;;38.47;9.55;;;;;;;8.02;86.67;99743.69;10376070;28;20038;-82
2022/04/11 00:39:35;;;;;;;57.22;15.65;;;;;;;7.57;86.61;99673.63;10376414;28;20049;-81
2022/04/11 00:44:36;;;;;;;28.67;7.65;;;;;;;8.13;86.61;99780.34;10374838;28;20066;-81
2022/04/11 00:49:37;;;;;;;32.92;7.70;;;;;;;7.87;86.61;99732.13;10375480;28;20038;-82
2022/04/11 00:54:40;;;;;;;44.78;11.82;;;;;;;7.24;87.36;99647.16;10372710;28;20058;-82
2022/04/11 00:59:41;;;;;;;46.22;9.93;;;;;;;7.04;88.74;99625.50;10332834;28;20038;-81
2022/04/11 01:04:42;;;;;;;47.42;11.13;;;;;;;5.91;89.49;99465.88;10334281;28;20045;-81
2022/04/11 01:09:43;;;;;;;32.95;9.52;;;;;;;7.41;89.34;99710.59;10337785;28;20040;-81
2022/04/11 01:14:44;;;;;;;31.33;7.93;;;;;;;6.25;89.08;99525.69;10374174;28;20038;-81
2022/04/11 01:19:45;;;;;;;35.10;8.40;;;;;;;7.57;89.59;99734.41;10373759;28;20053;-81
2022/04/11 01:24:45;;;;;;;39.50;7.88;;;;;;;7.10;90.09;99668.94;10374598;28;20404;-81
2022/04/11 01:29:46;;;;;;;30.63;6.47;;;;;;;7.64;89.93;99769.75;10373851;28;20052;-82
2022/04/11 01:34:47;;;;;;;44.72;9.70;;;;;;;7.40;89.08;99722.16;10373614;28;20038;-81
2022/04/11 01:39:48;;;;;;;32.40;7.35;;;;;;;7.52;89.45;99766.59;10373532;28;20046;-81
2022/04/11 01:44:49;;;;;;;38.13;7.40;;;;;;;6.50;90.17;99648.78;10372874;28;20081;-81
2022/04/11 01:49:50;;;;;;;31.67;7.43;;;;;;;6.96;90.23;99752.22;10373208;28;20081;-81
2022/04/11 01:54:50;;;;;;;36.85;7.55;;;;;;;6.10;89.46;99608.06;10373195;28;20080;-81
2022/04/11 01:59:51;;;;;;;24.83;6.22;;;;;;;6.60;90.65;99717.25;10372707;28;20073;-82
2022/04/11 02:04:52;;;;;;;31.92;7.00;;;;;;;6.71;90.31;99763.69;10372950;28;20045;-81
2022/04/11 02:09:53;;;;;;;32.40;6.40;;;;;;;6.08;90.52;99651.38;10372592;28;20052;-81
2022/04/11 02:14:53;;;;;;;41.33;7.30;;;;;;;5.65;89.37;99610.88;10372254;28;20045;-81
2022/04/11 02:19:54;;;;;;;24.70;6.70;;;;;;;6.14;90.33;99743.06;10371975;28;20046;-82
2022/04/11 02:24:55;;;;;;;28.33;5.97;;;;;;;5.75;89.68;99668.75;10372914;28;20088;-82
2022/04/11 02:29:56;;;;;;;35.40;6.80;;;;;;;6.50;88.99;99785.19;10354499;28;20034;-81
2022/04/11 02:34:56;;;;;;;38.50;7.43;;;;;;;6.20;89.26;99747.72;10370890;28;20044;-81
2022/04/11 02:39:57;;;;;;;34.95;6.85;;;;;;;6.10;89.99;99736.41;10372208;28;20407;-80
2022/04/11 02:44:58;;;;;;;43.67;10.88;;;;;;;6.37;89.51;99759.19;10356474;28;20049;-79
2022/04/11 02:49:59;;;;;;;34.13;6.85;;;;;;;6.42;88.77;99750.81;10346206;28;20101;-79
2022/04/11 02:55:00;;;;;;;32.05;7.07;;;;;;;5.74;89.34;99631.00;10347718;28;20062;-80
2022/04/11 03:00:01;;;;;;;21.70;6.15;;;;;;;5.82;88.35;99651.34;10328636;28;20045;-80
2022/04/11 03:05:02;;;;;;;23.35;6.72;;;;;;;6.56;89.12;99787.19;10346715;28;20136;-81
2022/04/11 03:10:03;;;;;;;33.53;6.22;;;;;;;6.85;89.09;99800.88;10346179;28;20525;-78
2022/04/11 03:15:05;;;;;;;23.88;6.82;;;;;;;6.29;87.74;99628.09;10355668;28;20049;-79
2022/04/11 03:20:07;;;;;;;30.05;6.28;;;;;;;7.56;87.85;99785.59;10343317;28;20053;-79
2022/04/11 03:25:08;;;;;;;20.15;5.75;;;;;;;7.81;86.74;99757.41;10320028;28;20038;-79
2022/04/11 03:30:09;;;;;;;24.40;6.70;;;;;;;8.78;85.09;99790.06;10337564;28;20403;-80
2022/04/11 03:35:10;;;;;;;27.85;7.00;;;;;;;9.59;83.32;99809.25;10337137;28;20030;-80
2022/04/11 03:40:12;;;;;;;26.83;7.25;;;;;;;10.37;81.51;99805.56;10370367;28;20037;-81
2022/04/11 03:45:12;;;;;;;23.08;6.68;;;;;;;10.86;80.04;99775.88;10377426;28;20117;-80
2022/04/11 03:50:13;;;;;;;38.47;7.13;;;;;;;11.53;77.99;99726.94;10378283;28;20046;-80
2022/04/11 03:55:14;;;;;;;34.78;7.72;;;;;;;12.27;75.69;99797.69;10376679;28;20137;-80
2022/04/11 04:00:16;;;;;;;26.80;7.65;;;;;;;12.22;74.83;99752.16;10370899;28;20056;-80
2022/04/11 04:05:17;;;;;;;22.75;6.10;;;;;;;12.59;73.80;99739.50;10370352;28;20252;-80
2022/04/11 04:10:18;;;;;;;30.92;6.88;;;;;;;13.16;73.70;99786.34;10372655;28;20030;-82
2022/04/11 04:15:19;;;;;;;34.95;6.90;;;;;;;13.13;72.70;99722.75;10377211;28;20140;-81
2022/04/11 04:20:20;;;;;;;29.40;6.80;;;;;;;13.61;72.45;99744.03;10375039;28;20053;-76
2022/04/11 04:25:21;;;;;;;38.78;8.02;;;;;;;14.05;71.83;99778.19;10341659;28;20059;-79
2022/04/11 04:30:22;;;;;;;32.03;8.05;;;;;;;14.22;71.06;99785.81;10409400;28;20044;-76
2022/04/11 04:35:23;;;;;;;26.83;7.72;;;;;;;13.91;70.94;99739.19;10414970;28;20043;-79
2022/04/11 04:40:24;;;;;;;47.70;8.80;;;;;;;13.06;70.38;99634.72;10415806;28;20041;-75
2022/04/11 04:45:25;;;;;;;34.15;7.82;;;;;;;13.59;70.36;99714.09;10412900;28;20041;-78
2022/04/11 04:50:25;;;;;;;41.47;8.70;;;;;;;13.40;70.26;99683.66;10392966;28;20045;-82
2022/04/11 04:55:26;;;;;;;45.88;9.15;;;;;;;13.68;71.36;99755.56;10371568;28;20053;-82
2022/04/11 05:00:27;;;;;;;46.53;9.68;;;;;;;13.16;72.24;99699.19;10361334;28;20046;-81
2022/04/11 05:05:28;;;;;;;51.53;8.23;;;;;;;12.70;72.66;99645.69;10348861;28;20046;-83
2022/04/11 05:10:29;;;;;;;46.17;8.77;;;;;;;13.01;73.02;99715.34;10333735;28;20504;-83
2022/04/11 05:15:30;;;;;;;43.28;8.65;;;;;;;12.96;73.42;99693.78;10333233;28;20052;-83
2022/04/11 05:20:30;;;;;;;38.78;8.23;;;;;;;13.50;73.33;99752.66;10333288;28;20042;-86
2022/04/11 05:25:31;;;;;;;51.58;8.48;;;;;;;13.27;72.74;99697.78;10333556;28;20045;-82
2022/04/11 05:30:35;;;;;;;48.08;8.50;;;;;;;13.60;72.99;99732.53;10332904;28;20207;-83
2022/04/11 05:35:36;;;;;;;33.28;7.93;;;;;;;13.11;72.75;99578.13;10333220;28;20073;-83
2022/04/11 05:40:37;;;;;;;51.42;8.88;;;;;;;13.63;71.35;99660.09;10333360;28;20096;-82
2022/04/11 05:45:37;;;;;;;51.67;10.10;;;;;;;13.80;72.38;99747.78;10332801;28;20053;-84
2022/04/11 05:50:38;;;;;;;63.65;9.15;;;;;;;13.25;72.42;99598.47;10332662;28;20126;-82
2022/04/11 05:55:39;;;;;;;35.08;8.15;;;;;;;14.18;72.07;99717.78;10332781;28;20136;-82
2022/04/11 06:00:40;;;;;;;42.47;8.25;;;;;;;13.73;71.60;99557.41;10332680;28;20046;-83
2022/04/11 06:05:40;;;;;;;52.97;9.52;;;;;;;15.03;70.13;99708.78;10332159;28;20042;-83
2022/04/11 06:10:43;;;;;;;49.17;8.98;;;;;;;14.74;69.31;99621.06;10332550;28;20125;-82
2022/04/11 06:15:44;;;;;;;49.58;9.05;;;;;;;14.95;68.72;99596.69;10332526;28;20034;-82
2022/04/11 06:20:46;;;;;;;61.92;9.40;;;;;;;15.29;67.18;99584.75;10331793;28;20050;-86
2022/04/11 06:25:46;;;;;;;44.67;8.60;;;;;;;14.15;66.49;99359.28;10332261;28;20041;-85
2022/04/11 06:30:47;;;;;;;41.10;8.02;;;;;;;15.96;65.51;99622.50;10331203;28;20069;-87
2022/04/11 06:35:48;;;;;;;43.80;8.32;;;;;;;16.35;64.81;99673.25;10331798;28;20034;-87
2022/04/11 06:40:49;;;;;;;50.67;8.48;;;;;;;16.33;64.30;99606.47;10331523;28;20054;-85
2022/04/11 06:45:51;;;;;;;57.40;8.32;;;;;;;15.01;63.20;99389.06;10314671;28;20034;-84
2022/04/11 06:50:52;;;;;;;42.25;8.10;;;;;;;16.46;63.35;99584.03;10337688;28;20421;-82
2022/04/11 06:55:53;;;;;;;55.40;8.38;;;;;;;16.39;62.38;99498.34;10338788;28;20058;-83
2022/04/11 07:00:54;;;;;;;49.45;9.13;;;;;;;17.43;62.02;99618.00;10338990;28;20046;-85
2022/04/11 07:05:55;;;;;;;53.72;8.70;;;;;;;16.49;61.01;99393.25;10338128;28;20046;-84
2022/04/11 07:10:58;;;;;;;41.55;8.57;;;;;;;18.06;60.33;99638.88;10371096;28;20049;-84
2022/04/11 07:15:59;;;;;;;46.93;8.77;;;;;;;17.38;59.98;99505.97;10361616;28;20481;-83
2022/04/11 07:21:00;;;;;;;50.22;7.90;;;;;;;17.41;59.03;99518.09;10379158;28;20038;-86
2022/04/11 07:26:01;;;;;;;49.05;8.55;;;;;;;17.39;59.42;99478.06;10377703;28;20516;-87
2022/04/11 07:31:02;;;;;;;51.70;8.10;;;;;;;18.04;59.11;99509.31;10378701;28;20049;-83
2022/04/11 07:36:03;;;;;;;47.58;8.10;;;;;;;18.96;57.90;99620.59;10378240;28;20034;-84
2022/04/11 07:41:03;;;;;;;38.47;8.63;;;;;;;18.79;57.35;99566.75;10377637;28;20129;-83
2022/04/11 07:46:05;;;;;;;44.17;8.73;;;;;;;18.89;56.92;99599.22;10378468;28;20088;-83
2022/04/11 07:51:06;;;;;;;51.08;9.35;;;;;;;18.21;57.74;99515.56;10378599;28;20060;-84
2022/04/11 07:56:06;;;;;;;40.20;8.30;;;;;;;17.43;56.30;99306.56;10377960;28;20058;-84
2022/04/11 08:01:07;;;;;;;53.03;8.55;;;;;;;18.68;55.85;99466.97;10376872;28;20045;-82
2022/04/11 08:06:08;;;;;;;50.95;7.68;;;;;;;19.71;55.63;99566.41;10376622;28;20038;-82
2022/04/11 08:11:09;;;;;;;50.17;8.70;;;;;;;19.82;55.03;99538.56;10378052;28;20038;-84
2022/04/11 08:16:10;;;;;;;74.15;9.57;;;;;;;18.85;54.71;99393.56;10377209;28;20488;-84
2022/04/11 08:21:10;;;;;;;51.20;9.35;;;;;;;19.02;54.91;99428.53;10376759;28;20069;-85
2022/04/11 08:26:12;;;;;;;66.88;8.60;;;;;;;20.08;54.55;99540.78;10375878;28;20049;-82
2022/04/11 08:31:13;;;;;;;55.28;7.75;;;;;;;20.10;54.07;99514.38;10376236;28;20042;-82
2022/04/11 08:36:14;;;;;;;44.65;8.25;;;;;;;19.90;53.18;99451.06;10375560;28;20041;-84
2022/04/11 08:41:17;;;;;;;51.58;8.88;;;;;;;19.76;53.16;99404.81;10375821;28;20038;-84
2022/04/11 08:46:20;;;;;;;56.85;8.68;;;;;;;20.43;52.29;99452.22;10375858;28;20713;-84
2022/04/11 08:51:21;;;;;;;45.90;7.70;;;;;;;20.01;51.87;99354.94;10374955;28;20054;-85
2022/04/11 08:56:22;;;;;;;46.17;7.45;;;;;;;20.51;51.10;99376.19;10376372;28;20057;-83
2022/04/11 09:01:24;;;;;;;54.92;8.52;;;;;;;20.73;50.98;99395.03;10374637;28;20489;-80
2022/04/11 09:06:26;;;;;;;44.47;8.43;;;;;;;20.50;50.96;99331.41;10375543;28;20497;-81
2022/04/11 09:11:37;;;;;;;54.20;8.50;;;;;;;21.15;50.21;99401.53;10374717;28;20470;-80
2022/04/11 09:16:44;;;;;;;50.83;7.90;;;;;;;21.43;49.13;99457.91;10373796;28;20046;-84
2022/04/11 09:21:45;;;;;;;45.60;8.00;;;;;;;21.03;49.66;99371.19;10374620;28;20048;-81
2022/04/11 09:26:47;;;;;;;52.42;7.85;;;;;;;21.74;49.24;99438.34;10374904;28;20057;-83
2022/04/11 09:31:48;;;;;;;46.17;7.03;;;;;;;21.97;49.38;99458.72;10373961;28;20076;-86
2022/04/11 09:36:53;;;;;;;41.30;7.32;;;;;;;22.06;48.63;99465.25;10372970;28;20667;-83
2022/04/11 09:41:53;;;;;;;61.63;9.38;;;;;;;22.40;48.01;99452.13;10373736;28;20045;-84
2022/04/11 09:47:06;;;;;;;49.50;7.25;;;;;;;22.81;47.83;99457.59;10374413;28;20046;-85
2022/04/11 09:52:15;;;;;;;42.27;8.23;;;;;;;22.98;46.41;99458.16;10373527;28;20034;-83
2022/04/11 09:57:17;;;;;;;48.85;8.25;;;;;;;22.98;47.03;99444.63;10373480;28;20066;-82
2022/04/11 10:02:21;;;;;;;48.30;8.23;;;;;;;22.46;46.40;99396.13;10372997;28;20103;-82
2022/04/11 10:07:22;;;;;;;;;;;;;;;22.96;46.30;99411.56;10372761;28;20508;-83
2022/04/11 10:12:23;;;;;;;48.13;7.30;;;;;;;23.13;45.50;99405.88;10372241;28;20008;-84
2022/04/11 10:17:23;;;;;;;47.03;6.47;;;;;;;23.29;45.54;99395.81;10373015;28;20048;-83
2022/04/11 10:22:27;;;;;;;45.72;7.32;;;;;;;23.28;45.14;99380.66;10371852;28;20045;-81
2022/04/11 10:27:29;;;;;;;53.28;6.60;;;;;;;23.59;44.36;99358.84;10372554;28;20042;-83
2022/04/11 10:32:31;;;;;;;53.30;7.57;;;;;;;23.91;44.31;99367.41;10372485;28;20041;-84
2022/04/11 10:37:41;;;;;;;44.15;7.57;;;;;;;24.10;42.88;99353.97;10372340;28;20129;-85
2022/04/11 10:43:00;;;;;;;52.65;8.25;;;;;;;24.28;43.35;99333.50;10371967;28;20042;-83
2022/04/11 10:48:01;;;;;;;47.17;7.78;;;;;;;24.21;42.32;99318.66;10372085;28;20034;-83
2022/04/11 10:53:08;;;;;;;71.22;9.13;;;;;;;24.48;41.94;99326.34;10372205;28;20065;-80
2022/04/11 10:58:21;;;;;;;47.15;7.38;;;;;;;24.35;41.63;99295.19;10372071;28;20038;-85
2022/04/11 11:03:22;;;;;;;43.35;7.40;;;;;;;23.93;42.13;99266.75;10371259;28;20112;-80
2022/04/11 11:08:25;;;;;;;38.35;6.45;;;;;;;23.84;41.30;99231.31;10372074;28;20042;-84
2022/04/11 11:13:35;;;;;;;43.43;5.77;;;;;;;24.30;41.20;99308.81;10372143;28;20041;-83
2022/04/11 11:18:49;;;;;;;42.85;6.70;;;;;;;24.41;41.20;99288.63;10370994;28;20409;-86
2022/04/11 11:24:16;;;;;;;36.88;6.13;;;;;;;24.34;41.99;99236.56;10371750;28;20076;-80
2022/04/11 11:29:20;;;;;;;51.42;6.28;;;;;;;24.51;40.69;99271.47;10371924;28;20133;-85
2022/04/11 11:34:26;;;;;;;30.85;5.45;;;;;;;24.38;40.65;99251.22;10373815;28;20041;-84
2022/04/11 11:39:29;;;;;;;39.55;6.15;;;;;;;24.52;40.98;99259.50;10378604;28;20038;-84
2022/04/11 11:44:32;;;;;;;41.47;6.30;;;;;;;24.65;40.99;99260.72;10377980;28;20060;-85
2022/04/11 11:49:47;;;;;;;37.92;6.13;;;;;;;24.24;41.57;99185.13;10377787;28;20046;-85
2022/04/11 11:54:52;;;;;;;34.28;5.75;;;;;;;23.86;41.15;99145.03;10375277;28;20478;-80
2022/04/11 12:00:01;;;;;;;35.22;5.90;;;;;;;24.01;40.49;99124.28;10335537;28;20070;-86
2022/04/11 12:05:03;;;;;;;40.63;6.57;;;;;;;24.71;41.15;99227.00;10343744;28;20093;-82
2022/04/11 12:10:08;;;;;;;29.52;5.78;;;;;;;24.17;40.03;99146.63;10336291;28;20066;-77
2022/04/11 12:15:10;;;;;;;35.72;6.32;;;;;;;24.30;39.96;99181.25;10334073;28;20391;-78
2022/04/11 12:20:20;;;;;;;53.15;6.82;;;;;;;24.45;40.61;99210.19;10335350;28;20125;-78
2022/04/11 12:25:26;;;;;;;36.78;6.15;;;;;;;23.99;40.73;99121.88;10349433;28;20054;-78
2022/04/11 12:30:27;;;;;;;42.50;5.95;;;;;;;24.51;39.18;99201.69;10375613;28;20128;-78
2022/04/11 12:35:29;;;;;;;45.13;5.97;;;;;;;24.16;39.29;99189.25;10348703;28;20129;-81
2022/04/11 12:40:45;;;;;;;40.92;6.47;;;;;;;23.98;38.49;99157.41;10334179;28;20077;-78
2022/04/11 12:46:04;;;;;;;65.18;7.55;;;;;;;23.99;39.28;99200.53;10335147;28;20040;-76
2022/04/11 12:51:11;;;;;;;50.35;6.35;;;;;;;23.14;39.22;99049.09;10334557;28;20413;-78
2022/04/11 12:56:12;;;;;;;70.10;7.40;;;;;;;23.93;39.12;99204.38;10334269;28;20058;-77
2022/04/11 13:01:13;;;;;;;89.80;9.02;;;;;;;23.36;38.80;99113.69;10363165;28;20475;-80
2022/04/11 13:06:13;;;;;;;444.20;29.35;;;;;;;22.00;38.68;98901.16;10316725;28;20410;-75
2022/04/11 13:11:19;;;;;;;64.53;9.30;;;;;;;23.66;38.52;99177.69;10334096;28;20054;-76
2022/04/11 13:21:39;;;;;;;250.70;16.75;;;;;;;23.19;38.02;99105.97;10334694;28;20044;-78
2022/04/11 13:26:40;;;;;;;45.08;6.18;;;;;;;23.49;38.06;99147.50;10332945;28;20418;-79
2022/04/11 13:31:42;;;;;;;44.17;6.15;;;;;;;23.38;37.74;99144.84;10351376;28;20077;-75
2022/04/11 13:36:42;;;;;;;39.28;5.32;;;;;;;22.98;38.18;99102.56;10359821;28;20049;-77
2022/04/11 13:41:47;;;;;;;39.00;7.47;;;;;;;22.58;38.36;99042.09;10333144;28;20049;-81
2022/04/11 13:46:49;;;;;;;46.60;5.82;;;;;;;23.15;38.36;99135.50;10332789;28;20042;-79
2022/04/11 13:51:50;;;;;;;39.60;6.57;;;;;;;22.77;37.46;99118.09;10332589;28;20050;-77
2022/04/11 13:56:51;;;;;;;36.75;4.97;;;;;;;22.61;37.48;99121.94;10332016;28;20062;-76
2022/04/11 14:01:53;;;;;;;49.88;7.15;;;;;;;22.75;38.03;99150.84;10314963;28;20046;-80
2022/04/11 14:06:54;;;;;;;42.70;7.32;;;;;;;22.46;37.63;99120.09;10332069;28;20064;-81
2022/04/11 14:11:55;;;;;;;51.97;7.03;;;;;;;21.16;37.23;98952.19;10332614;28;20057;-80
2022/04/11 14:16:58;;;;;;;36.38;6.88;;;;;;;22.03;37.73;99115.03;10314989;28;20069;-81
2022/04/11 14:21:59;;;;;;;56.78;8.98;;;;;;;22.13;38.36;99138.53;10332052;28;20043;-80
2022/04/11 14:26:59;;;;;;;41.78;6.85;;;;;;;21.37;38.70;99053.75;10332781;28;20054;-80
2022/04/11 14:32:00;;;;;;;41.88;6.00;;;;;;;21.02;38.42;99024.00;10331984;28;20039;-80
2022/04/11 14:37:01;;;;;;;33.00;5.47;;;;;;;21.63;38.31;99140.22;10331108;28;20414;-79
2022/04/11 14:42:02;;;;;;;37.13;5.88;;;;;;;21.05;39.26;99097.16;10331111;28;20632;-79
2022/04/11 14:47:03;;;;;;;43.05;6.85;;;;;;;21.21;39.59;99143.94;10331428;28;20413;-81
2022/04/11 14:52:05;;;;;;;32.45;5.78;;;;;;;21.03;40.15;99152.50;10331219;28;20070;-82
2022/04/11 14:57:06;;;;;;;38.67;5.85;;;;;;;19.27;40.57;98903.09;10313904;28;20066;-80
2022/04/11 15:02:14;;;;;;;38.50;5.68;;;;;;;20.05;41.50;99084.63;10330767;28;20149;-78
2022/04/11 15:07:15;;;;;;;39.33;5.80;;;;;;;19.46;41.62;99033.53;10330556;28;20579;-77
2022/04/11 15:12:16;;;;;;;39.17;5.97;;;;;;;18.95;41.99;98979.28;10338442;28;20081;-81
2022/04/11 15:17:17;;;;;;;36.13;5.65;;;;;;;19.95;42.25;99161.88;10338416;28;20568;-80
2022/04/11 15:22:21;;;;;;;36.28;5.40;;;;;;;18.95;41.56;99060.00;10334711;28;20095;-80
2022/04/11 15:27:23;;;;;;;36.53;5.57;;;;;;;17.90;42.08;98927.63;10356677;28;20116;-80
2022/04/11 15:32:24;;;;;;;40.10;6.60;;;;;;;18.98;42.66;99144.81;10354837;28;20046;-81
2022/04/11 15:37:24;;;;;;;35.45;5.57;;;;;;;18.17;43.45;99051.31;10354081;28;20105;-78
2022/04/11 15:42:25;;;;;;;37.65;5.10;;;;;;;18.10;44.38;99094.47;10353761;28;20042;-78
2022/04/11 15:47:27;;;;;;;37.28;6.55;;;;;;;17.43;45.04;99022.81;10352870;28;20033;-80
2022/04/11 15:52:28;;;;;;;38.80;6.00;;;;;;;17.62;45.77;99100.41;10347994;28;20045;-79
2022/04/11 15:57:29;;;;;;;34.25;5.65;;;;;;;17.13;46.16;99041.91;10345528;28;20052;-84
2022/04/11 16:02:30;;;;;;;46.25;6.32;;;;;;;17.02;46.71;99062.41;10342273;28;20034;-82
2022/04/11 16:07:32;;;;;;;47.50;6.97;;;;;;;16.26;46.96;98965.25;10346238;28;20046;-83
2022/04/11 16:12:32;;;;;;;44.45;6.60;;;;;;;15.74;47.39;98906.38;10346333;28;20041;-82
2022/04/11 16:17:34;;;;;;;47.42;9.57;;;;;;;16.79;47.70;99098.19;10357242;28;20060;-85
2022/04/11 16:22:35;;;;;;;40.08;6.22;;;;;;;17.34;48.16;99204.94;10368513;28;20070;-84
2022/04/11 16:27:35;;;;;;;33.53;5.85;;;;;;;17.11;47.72;99205.88;10371151;28;20133;-85
2022/04/11 16:32:36;;;;;;;33.20;5.82;;;;;;;16.70;47.91;99141.69;10371549;28;20041;-87
2022/04/11 16:37:37;;;;;;;35.22;6.15;;;;;;;16.57;48.34;99154.31;10350329;28;20042;-85
2022/04/11 16:42:38;;;;;;;35.85;6.07;;;;;;;15.43;49.02;98987.81;10357239;28;20046;-87
2022/04/11 16:47:40;;;;;;;36.50;6.35;;;;;;;15.68;49.64;99049.22;10330237;28;20498;-86
2022/04/11 16:52:41;;;;;;;40.50;7.10;;;;;;;16.48;49.96;99208.50;10343237;28;20080;-84
2022/04/11 16:57:42;;;;;;;37.88;8.10;;;;;;;15.53;50.79;99084.44;10342391;28;20173;-84
2022/04/11 17:02:43;;;;;;;34.08;6.60;;;;;;;15.41;51.82;99087.09;10366336;28;20089;-84
2022/04/11 17:07:44;;;;;;;36.17;5.18;;;;;;;15.56;52.35;99148.22;10375335;28;20088;-84
2022/04/11 17:12:45;;;;;;;32.13;5.60;;;;;;;13.88;53.08;98911.97;10374494;28;20048;-84
2022/04/11 17:23:05;;;;;;;33.85;4.72;;;;;;;15.44;54.69;99212.41;10339905;28;20068;-84
2022/04/11 17:28:06;;;;;;;38.70;6.25;;;;;;;14.75;55.05;99122.81;10352561;28;20042;-83
2022/04/11 17:33:07;;;;;;;33.33;6.47;;;;;;;15.19;55.83;99215.19;10349345;28;20092;-82
2022/04/11 17:38:09;;;;;;;100.90;49.97;;;;;;;14.98;56.30;99216.47;10356022;28;20037;-83
2022/04/11 17:43:10;;;;;;;43.30;16.40;;;;;;;14.75;56.92;99195.78;10373072;28;20050;-84
2022/04/11 17:48:11;;;;;;;36.15;7.53;;;;;;;13.96;57.71;99092.41;10373208;28;20038;-81
2022/04/11 17:53:13;;;;;;;49.03;6.80;;;;;;;14.59;58.60;99215.06;10353549;28;20449;-82
2022/04/11 17:58:14;;;;;;;39.45;5.68;;;;;;;13.89;59.25;99135.19;10328007;28;20041;-81
2022/04/11 18:03:17;;;;;;;36.08;5.70;;;;;;;14.44;59.75;99243.97;10343785;28;20643;-79
2022/04/11 18:08:18;;;;;;;33.55;5.45;;;;;;;13.56;61.33;99114.09;10345271;28;20514;-85
2022/04/11 18:13:19;;;;;;;27.77;4.72;;;;;;;13.92;61.50;99174.78;10349730;28;20448;-85
2022/04/11 18:18:20;;;;;;;36.88;5.72;;;;;;;14.02;61.80;99214.34;10345729;28;20042;-85
2022/04/11 18:23:21;;;;;;;23.75;4.85;;;;;;;12.54;61.79;99016.31;10343026;28;20042;-83
2022/04/11 18:33:42;;;;;;;28.38;5.05;;;;;;;13.20;63.55;99147.56;10371374;28;20124;-82
2022/04/11 18:38:43;;;;;;;31.85;5.15;;;;;;;13.40;64.12;99203.47;10371735;28;20140;-81
2022/04/11 18:43:45;;;;;;;41.90;5.82;;;;;;;12.46;65.12;99091.13;10373286;28;20050;-83
2022/04/11 18:48:47;;;;;;;27.15;5.25;;;;;;;12.47;65.84;99121.22;10377388;28;20509;-82
2022/04/11 18:53:47;;;;;;;31.42;5.57;;;;;;;12.20;66.96;99092.00;10379980;28;20115;-83
2022/04/11 18:58:49;;;;;;;33.17;5.43;;;;;;;12.88;68.18;99232.00;10361916;28;20464;-82
2022/04/11 19:03:51;;;;;;;35.75;5.28;;;;;;;11.37;69.70;99014.56;10362298;28;20046;-85
2022/04/11 19:08:51;;;;;;;28.80;5.07;;;;;;;11.60;71.07;99048.69;10380024;28;20053;-86
2022/04/11 19:13:52;;;;;;;27.88;5.32;;;;;;;11.51;71.25;99053.41;10379549;28;20049;-85
2022/04/11 19:18:54;;;;;;;28.65;5.22;;;;;;;11.60;72.97;99093.91;10379073;28;20441;-82
2022/04/11 19:23:55;;;;;;;22.90;4.78;;;;;;;12.10;73.33;99174.16;10379100;28;20045;-83
2022/04/11 19:28:59;;;;;;;30.15;5.38;;;;;;;11.28;74.54;99051.19;10361691;28;20057;-83
2022/04/11 19:34:00;;;;;;;30.23;5.22;;;;;;;11.88;75.82;99162.94;10378889;28;20046;-81
2022/04/11 19:39:01;;;;;;;23.92;4.82;;;;;;;11.72;76.29;99155.31;10378726;28;20045;-85
2022/04/11 19:44:02;;;;;;;26.83;5.70;;;;;;;10.84;76.74;99049.91;10360627;28;20042;-82
2022/04/11 19:54:22;;;;;;;30.75;5.78;;;;;;;11.48;78.84;99185.97;10368700;28;20057;-82
2022/04/11 19:59:23;;;;;;;25.63;5.47;;;;;;;11.35;78.28;99173.47;10376876;28;20052;-83
2022/04/11 20:04:24;;;;;;;27.92;4.95;;;;;;;11.24;78.35;99152.78;10377424;28;20557;-86
2022/04/11 20:09:25;;;;;;;23.40;5.18;;;;;;;11.17;79.13;99139.50;10377915;28;20413;-83
2022/04/11 20:14:26;;;;;;;38.25;5.80;;;;;;;11.38;79.28;99178.41;10359346;28;20509;-83
2022/04/11 20:19:27;;;;;;;29.98;5.25;;;;;;;10.81;79.95;99092.00;10376856;28;20042;-84
2022/04/11 20:24:28;;;;;;;30.40;5.68;;;;;;;9.75;81.64;98954.31;10376430;28;20398;-83
2022/04/11 20:29:29;;;;;;;24.50;5.63;;;;;;;10.92;81.62;99155.19;10376830;28;20046;-83
2022/04/11 20:34:30;;;;;;;25.67;5.57;;;;;;;10.49;83.19;99105.75;10376884;28;20581;-84
2022/04/11 20:39:31;;;;;;;26.40;5.43;;;;;;;8.74;84.29;98818.81;10376394;28;20476;-83
2022/04/11 20:44:31;;;;;;;23.75;5.72;;;;;;;10.29;85.30;99073.00;10375590;28;20062;-84
2022/04/11 20:49:32;;;;;;;22.02;5.55;;;;;;;9.96;86.06;99040.94;10358312;28;20045;-86
2022/04/11 20:59:52;;;;;;;25.17;4.95;;;;;;;10.32;89.40;99146.94;10371998;28;20476;-85
2022/04/11 21:04:53;;;;;;;32.90;5.63;;;;;;;9.79;89.41;99064.31;10357809;28;20145;-85
2022/04/11 21:09:54;;;;;;;33.10;5.50;;;;;;;9.01;90.39;98984.84;10357412;28;20566;-85
2022/04/11 21:14:55;;;;;;;27.60;5.05;;;;;;;9.55;90.86;99052.34;10375293;28;20041;-83
2022/04/11 21:19:55;;;;;;;30.27;5.25;;;;;;;9.94;91.43;99141.97;10374384;28;20127;-84
2022/04/11 21:24:56;;;;;;;29.60;5.72;;;;;;;9.08;91.73;98985.72;10373706;28;20041;-83
2022/04/11 21:29:57;;;;;;;31.00;5.28;;;;;;;9.79;93.82;99123.50;10374137;28;20065;-81
2022/04/11 21:34:58;;;;;;;29.10;5.57;;;;;;;9.82;93.99;99123.09;10374419;28;20046;-83
2022/04/11 21:39:59;;;;;;;42.40;6.68;;;;;;;8.89;93.49;98991.66;10373726;28;20057;-82
2022/04/11 21:45:00;;;;;;;33.78;6.38;;;;;;;9.23;94.11;99061.66;10374311;28;20042;-81
2022/04/11 21:50:02;;;;;;;33.92;7.00;;;;;;;8.80;95.02;98976.94;10373637;28;20038;-82
2022/04/11 21:55:04;;;;;;;30.35;6.40;;;;;;;9.59;96.36;99107.41;10355546;28;20067;-79
2022/04/11 22:00:08;;;;;;;33.47;6.43;;;;;;;9.53;97.72;99107.38;10370990;28;20100;-79
2022/04/11 22:05:09;;;;;;;32.65;6.32;;;;;;;8.67;97.75;98972.31;10372935;28;20038;-79
2022/04/11 22:10:09;;;;;;;31.65;5.93;;;;;;;7.88;97.81;98843.47;10372232;28;20045;-80
2022/04/11 22:15:10;;;;;;;28.95;6.63;;;;;;;9.52;98.55;99088.00;10355942;28;20073;-82
2022/04/11 22:20:13;;;;;;;24.90;6.85;;;;;;;7.89;99.01;98823.97;10354099;28;20041;-78
2022/04/11 22:25:14;;;;;;;28.15;6.07;;;;;;;8.68;98.88;98950.94;10355044;28;20034;-81
2022/04/11 22:30:16;;;;;;;25.63;6.40;;;;;;;9.23;99.15;99051.88;10371605;28;20049;-81
2022/04/11 22:35:17;;;;;;;28.80;6.82;;;;;;;8.27;99.07;98886.41;10373363;28;20476;-83
2022/04/11 22:40:19;;;;;;;25.17;6.30;;;;;;;8.47;98.78;98913.91;10371591;28;20104;-82
2022/04/11 22:45:20;;;;;;;21.20;5.38;;;;;;;8.84;98.10;98960.44;10372178;28;20083;-82
2022/04/11 22:50:21;;;;;;;21.05;5.85;;;;;;;9.65;98.19;99078.50;10371931;28;20577;-82
2022/04/11 22:55:22;;;;;;;23.17;6.53;;;;;;;8.38;98.36;98868.22;10372195;28;20062;-80
2022/04/11 23:00:23;;;;;;;18.13;6.85;;;;;;;8.76;98.83;98936.75;10372156;28;20413;-82
2022/04/11 23:05:24;;;;;;;24.10;6.97;;;;;;;9.63;98.29;99085.81;10354272;28;20069;-81
2022/04/11 23:10:26;;;;;;;16.98;6.55;;;;;;;9.14;98.91;98989.44;10354776;28;20048;-82
2022/04/11 23:15:26;;;;;;;18.02;7.32;;;;;;;9.07;98.12;98984.09;10371551;28;20375;-81
2022/04/11 23:20:27;;;;;;;18.27;7.70;;;;;;;9.60;98.63;99047.25;10371144;28;20045;-82
2022/04/11 23:25:28;;;;;;;14.23;6.00;;;;;;;8.37;98.51;98860.44;10370737;28;20422;-81
2022/04/11 23:30:29;;;;;;;16.08;7.30;;;;;;;8.72;99.29;98913.50;10373905;28;20052;-82
2022/04/11 23:35:30;;;;;;;22.88;7.35;;;;;;;8.73;98.71;98912.47;10378561;28;20489;-83
2022/04/11 23:45:49;;;;;;;19.33;7.88;;;;;;;9.49;99.11;99023.94;10379051;28;20057;-80